6Y6 weather

St Helen Airport
St Helen, Michigan, United States

Public forecast

Using degrees Fahrenheit for public forecast. Weather courtesy of forecast.io.

METAR (pilot weather report)

Closest report is Roscommon County - Blodgett Memorial Airport, 11.6 nm (21.6 km) W. Retrieved 2019/09/23 00:53 UTC (42 minutes ago):

KHTL 230053Z AUTO 25008KT 10SM -RA FEW025 BKN034 OVC043 20/18 A2980 RMK AO2 SLP087 P0001 T02000183

TAF (pilot weather forecast)

Forecast is more than 12 hours old.

Closest forecast is MBS International Airport, 51.9 nm (96.2 km) SSE. Retrieved 2019/09/22 00:24 UTC (1 day ago):

TAF KMBS 222323Z 2300/2324 23010KT 6SM -SHRA OVC045 TEMPO 2300/2302 4SM -RA BR OVC025 FM230200 23010KT 4SM SHRA BR VCTS OVC015CB TEMPO 2303/2307 2SM RA BR OVC007 FM230700 28010KT 4SM -SHRA BR OVC007 FM231300 28013KT P6SM VCSH OVC015 FM231600 28013G20KT P6SM BKN025 OVC040 FM231900 30015G25KT P6SM BKN040